LERS/REU METAR and TAF weather

Enter ICAO airport designator
Station Type Date Time Source
LERS METAR 2020/09/23 02:30 UTC NOAA

LERS 230230Z AUTO 36007KT CAVOK 18/15 Q1012


Station Type Date Time Source
LERS Decoded METAR 2020/09/23 02:30 UTC NOAA

Reus / Aeropuerto, Spain (LERS) 41-09N 001-10E 76M
Sep 22, 2020 - 10:30 PM EDT / 2020.09.23 0230 UTC
Wind: from the N (360 degrees) at 8 MPH (7 KT):0
Visibility: greater than 7 mile(s):0
Temperature: 64 F (18 C)
Dew Point: 59 F (15 C)
Relative Humidity: 82%
Pressure (altimeter): 29.88 in. Hg (1012 hPa)
ob: LERS 230230Z AUTO 36007KT CAVOK 18/15 Q1012
cycle: 2

Station Type Date Time Source
LERS TAF 2020/09/23 03:27 UTC NOAA

TAF LERS 230200Z 2303/2403 VRB03KT 9999 FEW030 TX28/2312Z TN16/2306Z
BECMG 2310/2312 23010KT
BECMG 2400/2402 VRB03KT

Example: see airport list